createdAt,value
2023-12-23T00:00:15.189Z,61.00
2023-12-23T00:02:17.679Z,60.76
2023-12-23T00:04:19.520Z,60.65
2023-12-23T00:06:21.308Z,61.03
2023-12-23T00:08:23.210Z,61.66
2023-12-23T00:10:25.150Z,62.15
2023-12-23T00:12:26.947Z,61.22
2023-12-23T00:14:28.749Z,61.93
2023-12-23T00:16:32.300Z,61.75
2023-12-23T00:18:34.139Z,61.30
2023-12-23T00:20:37.643Z,61.88
2023-12-23T00:22:39.543Z,62.01
2023-12-23T00:24:41.343Z,62.25
2023-12-23T00:26:43.257Z,62.71
2023-12-23T00:28:45.137Z,63.20
2023-12-23T00:30:47.063Z,62.98
2023-12-23T00:32:49.001Z,62.39
2023-12-23T00:34:50.862Z,62.27
2023-12-23T00:36:52.799Z,62.29
2023-12-23T00:38:54.667Z,62.17
2023-12-23T00:40:56.602Z,61.77
2023-12-23T00:42:58.362Z,60.84
2023-12-23T00:45:00.059Z,61.61
2023-12-23T00:47:01.953Z,61.39
2023-12-23T00:49:03.811Z,61.99
2023-12-23T00:51:06.963Z,61.78
2023-12-23T00:53:08.835Z,61.22
2023-12-23T00:55:10.663Z,61.77
2023-12-23T00:57:12.488Z,61.90
2023-12-23T00:59:14.330Z,61.75
2023-12-23T01:01:16.070Z,61.45
2023-12-23T01:03:18.000Z,62.28
2023-12-23T01:05:19.874Z,61.42
2023-12-23T01:07:22.141Z,63.11
2023-12-23T01:09:24.019Z,64.17
2023-12-23T01:11:26.211Z,64.98
2023-12-23T01:13:28.296Z,64.30
2023-12-23T01:15:30.156Z,64.25
2023-12-23T01:17:32.042Z,63.73
2023-12-23T01:19:34.335Z,62.02
2023-12-23T01:21:36.262Z,61.19
2023-12-23T01:23:37.984Z,61.69
2023-12-23T01:25:39.802Z,61.98
2023-12-23T01:27:41.542Z,61.46
2023-12-23T01:29:43.222Z,62.23
2023-12-23T01:31:45.100Z,62.93
2023-12-23T01:33:46.989Z,63.03
2023-12-23T01:35:48.737Z,62.76
2023-12-23T01:37:50.768Z,62.81
2023-12-23T01:39:52.699Z,63.36
2023-12-23T01:41:54.492Z,63.53
2023-12-23T01:43:56.371Z,63.85
2023-12-23T01:46:00.764Z,64.10
2023-12-23T01:48:02.691Z,64.03
2023-12-23T01:50:05.041Z,63.63
2023-12-23T01:52:07.048Z,65.42
2023-12-23T01:54:09.089Z,65.34
2023-12-23T01:56:11.629Z,65.25
2023-12-23T01:58:13.494Z,64.73
2023-12-23T02:00:15.539Z,64.82
2023-12-23T02:02:18.524Z,64.34
2023-12-23T02:04:20.365Z,62.43
2023-12-23T02:06:22.186Z,58.71
2023-12-23T02:08:24.150Z,57.18
2023-12-23T02:10:26.170Z,54.89
2023-12-23T02:12:39.888Z,53.15
2023-12-23T02:14:52.377Z,52.42
2023-12-23T02:16:54.300Z,52.11
2023-12-23T02:18:56.132Z,51.61
2023-12-23T02:20:57.892Z,51.01
2023-12-23T02:22:59.705Z,50.75
2023-12-23T02:25:01.564Z,50.67
2023-12-23T02:27:10.868Z,51.24
2023-12-23T02:29:13.484Z,50.89
2023-12-23T02:31:15.345Z,50.38
2023-12-23T02:33:17.806Z,50.36
2023-12-23T02:35:19.696Z,49.40
2023-12-23T02:37:21.532Z,49.39
2023-12-23T02:39:23.336Z,47.95
2023-12-23T02:41:25.053Z,49.06
2023-12-23T02:43:26.756Z,49.16
2023-12-23T02:45:28.663Z,48.81
2023-12-23T02:47:30.435Z,48.85
2023-12-23T02:49:32.154Z,48.14
2023-12-23T02:51:33.937Z,48.32
2023-12-23T02:53:35.709Z,49.20
2023-12-23T02:55:38.236Z,48.79
2023-12-23T02:57:40.083Z,48.24
2023-12-23T02:59:41.882Z,52.25
2023-12-23T03:01:43.614Z,53.99
2023-12-23T03:03:45.469Z,55.14
2023-12-23T03:05:47.235Z,57.83
2023-12-23T03:07:49.362Z,58.74
2023-12-23T03:09:51.149Z,59.68
2023-12-23T03:11:53.039Z,59.62
2023-12-23T03:13:55.111Z,60.38
2023-12-23T03:15:56.875Z,62.35
2023-12-23T03:17:58.887Z,62.54
2023-12-23T03:20:00.904Z,63.12
2023-12-23T03:22:03.381Z,63.80
2023-12-23T03:24:05.304Z,63.37
2023-12-23T03:26:08.888Z,64.33
2023-12-23T03:28:10.941Z,64.57
2023-12-23T03:30:13.251Z,64.33
2023-12-23T03:32:15.156Z,63.49
2023-12-23T03:34:16.899Z,63.93
2023-12-23T03:36:19.293Z,63.20
2023-12-23T03:38:23.338Z,64.86
2023-12-23T03:40:25.772Z,65.24
2023-12-23T03:42:27.537Z,66.32
2023-12-23T03:44:29.362Z,66.46
2023-12-23T03:46:31.342Z,65.70
2023-12-23T03:48:33.071Z,65.91
2023-12-23T03:50:34.919Z,65.68
2023-12-23T03:52:36.787Z,64.63
2023-12-23T03:54:38.625Z,63.96
2023-12-23T03:56:40.912Z,64.85
2023-12-23T03:58:42.732Z,64.74
2023-12-23T04:00:44.539Z,64.69
2023-12-23T04:02:46.283Z,64.77
2023-12-23T04:04:48.184Z,63.85
2023-12-23T04:06:50.041Z,64.25
2023-12-23T04:08:51.743Z,64.70
2023-12-23T04:10:53.508Z,64.14
2023-12-23T04:12:55.290Z,64.19
2023-12-23T04:14:57.003Z,61.94
2023-12-23T04:16:58.777Z,58.61
2023-12-23T04:19:00.604Z,55.79
2023-12-23T04:21:02.373Z,54.15
2023-12-23T04:23:04.284Z,52.99
2023-12-23T04:25:06.563Z,51.99
2023-12-23T04:27:08.679Z,50.63
2023-12-23T04:29:10.512Z,50.32
2023-12-23T04:31:12.535Z,53.35
2023-12-23T04:33:14.421Z,56.09
2023-12-23T04:35:16.351Z,57.69
2023-12-23T04:37:18.213Z,59.26
2023-12-23T04:39:19.976Z,60.22
2023-12-23T04:41:21.789Z,60.49
2023-12-23T04:43:23.571Z,62.00
2023-12-23T04:45:25.406Z,62.93
2023-12-23T04:47:27.233Z,59.78
2023-12-23T04:49:28.958Z,58.98
2023-12-23T04:51:30.720Z,56.28
2023-12-23T04:53:32.529Z,54.50
2023-12-23T04:55:34.283Z,52.30
2023-12-23T04:57:36.023Z,54.35
2023-12-23T04:59:37.724Z,55.74
2023-12-23T05:01:39.710Z,56.88
2023-12-23T05:03:42.056Z,59.35
2023-12-23T05:05:44.030Z,56.74
2023-12-23T05:07:45.923Z,58.74
2023-12-23T05:09:47.791Z,60.43
2023-12-23T05:11:49.518Z,61.79
2023-12-23T05:13:51.306Z,62.19
2023-12-23T05:15:53.312Z,62.37
2023-12-23T05:17:55.322Z,62.79
2023-12-23T05:19:57.837Z,62.63
2023-12-23T05:21:59.758Z,62.12
2023-12-23T05:24:01.506Z,62.70
2023-12-23T05:26:03.314Z,63.25
2023-12-23T05:28:05.430Z,63.02
2023-12-23T05:30:08.240Z,63.45
2023-12-23T05:32:10.340Z,64.38
2023-12-23T05:34:12.130Z,64.56
2023-12-23T05:36:14.025Z,64.13
2023-12-23T05:38:15.880Z,60.90
2023-12-23T05:40:17.613Z,58.88
2023-12-23T05:42:19.468Z,55.97
2023-12-23T05:44:21.380Z,53.81
2023-12-23T05:46:23.162Z,52.93
2023-12-23T05:48:25.132Z,51.83
2023-12-23T05:50:27.048Z,52.34
2023-12-23T05:52:28.885Z,51.08
2023-12-23T05:54:30.628Z,50.34
2023-12-23T05:56:32.442Z,49.27
2023-12-23T05:58:34.257Z,48.97
2023-12-23T06:00:36.030Z,48.72
2023-12-23T06:02:37.876Z,49.09
2023-12-23T06:04:39.626Z,48.76
2023-12-23T06:06:41.378Z,48.91
2023-12-23T06:08:43.157Z,48.39
2023-12-23T06:10:50.957Z,48.46
2023-12-23T06:12:59.408Z,48.50
2023-12-23T06:15:01.226Z,48.34
2023-12-23T06:17:03.075Z,47.85
2023-12-23T06:19:04.938Z,48.90
2023-12-23T06:21:06.661Z,48.65
2023-12-23T06:23:08.522Z,48.50
2023-12-23T06:25:10.270Z,48.88
2023-12-23T06:27:12.015Z,48.54
2023-12-23T06:29:13.953Z,49.03
2023-12-23T06:31:15.686Z,48.77
2023-12-23T06:33:17.486Z,48.89
2023-12-23T06:35:19.986Z,48.91
2023-12-23T06:37:21.777Z,49.07
2023-12-23T06:39:25.526Z,48.90
2023-12-23T06:41:27.425Z,49.21
2023-12-23T06:43:45.528Z,48.82
2023-12-23T06:45:51.850Z,48.54
2023-12-23T06:47:53.755Z,48.13
2023-12-23T06:49:55.704Z,48.93
2023-12-23T06:51:57.562Z,48.19
2023-12-23T06:54:00.037Z,48.95
2023-12-23T06:56:05.883Z,48.95
2023-12-23T06:58:08.408Z,48.92
2023-12-23T07:00:10.700Z,49.35
2023-12-23T07:02:12.596Z,48.92
2023-12-23T07:04:14.383Z,49.70
2023-12-23T07:06:16.290Z,49.12
2023-12-23T07:08:18.137Z,49.32
2023-12-23T07:10:19.906Z,49.20
2023-12-23T07:12:21.712Z,49.01
2023-12-23T07:14:23.901Z,49.00
2023-12-23T07:16:25.705Z,48.92
2023-12-23T07:18:27.592Z,49.34
2023-12-23T07:20:29.362Z,49.06
2023-12-23T07:22:31.205Z,49.11
2023-12-23T07:24:33.043Z,49.49
2023-12-23T07:26:36.324Z,48.62
2023-12-23T07:28:38.166Z,48.88
2023-12-23T07:30:46.186Z,49.24
2023-12-23T07:32:48.460Z,49.06
2023-12-23T07:34:50.961Z,48.97
2023-12-23T07:36:52.830Z,48.78
2023-12-23T07:38:54.541Z,48.14
2023-12-23T07:40:56.473Z,48.80
2023-12-23T07:42:58.312Z,48.54
2023-12-23T07:45:00.047Z,48.44
2023-12-23T07:47:01.877Z,49.12
2023-12-23T07:49:04.376Z,48.84
2023-12-23T07:51:10.020Z,49.20
2023-12-23T07:53:11.922Z,48.70
2023-12-23T07:55:13.810Z,48.97
2023-12-23T07:57:15.578Z,49.38
2023-12-23T07:59:17.508Z,48.96
2023-12-23T08:01:19.632Z,47.78
2023-12-23T08:03:21.434Z,48.71
2023-12-23T08:05:23.380Z,48.17
2023-12-23T08:07:25.171Z,48.07
2023-12-23T08:09:26.907Z,48.60
2023-12-23T08:11:28.788Z,48.71
2023-12-23T08:13:30.694Z,48.17
2023-12-23T08:15:32.485Z,47.76
2023-12-23T08:17:34.408Z,47.64
2023-12-23T08:19:36.264Z,47.80
2023-12-23T08:21:38.007Z,47.98
2023-12-23T08:23:40.095Z,48.21
2023-12-23T08:25:41.828Z,48.29
2023-12-23T08:27:43.620Z,48.39
2023-12-23T08:29:45.405Z,48.18
2023-12-23T08:31:47.350Z,47.74
2023-12-23T08:33:49.285Z,47.99
2023-12-23T08:35:51.126Z,48.68
2023-12-23T08:37:53.490Z,48.68
2023-12-23T08:39:55.738Z,49.10
2023-12-23T08:41:57.591Z,49.24
2023-12-23T08:43:59.459Z,50.09
2023-12-23T08:46:01.302Z,50.50
2023-12-23T08:48:03.248Z,50.62
2023-12-23T08:50:05.468Z,51.71
2023-12-23T08:52:07.710Z,53.91
2023-12-23T08:54:09.429Z,57.88
2023-12-23T08:56:11.311Z,59.60
2023-12-23T08:58:14.947Z,60.46
2023-12-23T09:00:16.946Z,61.49
2023-12-23T09:02:18.958Z,61.18
2023-12-23T09:04:20.734Z,62.08
2023-12-23T09:06:22.695Z,62.88
2023-12-23T09:08:24.578Z,62.95
2023-12-23T09:10:26.307Z,63.88
2023-12-23T09:12:28.035Z,64.39
2023-12-23T09:14:31.215Z,64.85
2023-12-23T09:16:33.038Z,65.47
2023-12-23T09:18:34.939Z,65.51
2023-12-23T09:20:36.773Z,64.46
2023-12-23T09:22:38.609Z,63.59
2023-12-23T09:24:42.702Z,64.99
2023-12-23T09:26:44.573Z,65.62
2023-12-23T09:28:46.294Z,66.61
2023-12-23T09:30:48.733Z,66.85
2023-12-23T09:32:51.217Z,66.50
2023-12-23T09:34:55.442Z,65.97
2023-12-23T09:36:57.328Z,67.38
2023-12-23T09:38:59.315Z,66.20
2023-12-23T09:41:01.218Z,66.44
2023-12-23T09:43:02.989Z,66.82
2023-12-23T09:45:05.494Z,66.96
2023-12-23T09:47:07.924Z,67.91
2023-12-23T09:49:09.767Z,68.85
2023-12-23T09:51:12.333Z,69.73
2023-12-23T09:53:15.113Z,69.78
2023-12-23T09:55:18.333Z,70.87
2023-12-23T09:57:20.794Z,72.85
2023-12-23T09:59:23.232Z,73.22
2023-12-23T10:01:25.154Z,73.07
2023-12-23T10:03:27.052Z,72.73
2023-12-23T10:05:29.273Z,74.07
2023-12-23T10:07:31.110Z,73.54
2023-12-23T10:09:34.884Z,74.16
2023-12-23T10:11:36.740Z,74.01
2023-12-23T10:13:38.502Z,73.24
2023-12-23T10:15:42.387Z,72.72
2023-12-23T10:17:44.181Z,72.36
2023-12-23T10:19:48.400Z,73.50
2023-12-23T10:21:50.226Z,73.72
2023-12-23T10:23:52.166Z,72.96
2023-12-23T10:25:54.010Z,72.27
2023-12-23T10:27:59.974Z,71.74
2023-12-23T10:30:05.060Z,69.95
2023-12-23T10:32:07.610Z,69.26
2023-12-23T10:34:12.876Z,69.52
2023-12-23T10:36:15.854Z,69.33
2023-12-23T10:38:22.049Z,68.82
2023-12-23T10:40:29.307Z,69.34
2023-12-23T10:42:31.821Z,69.66
2023-12-23T10:44:34.438Z,69.59
2023-12-23T10:46:36.308Z,70.59
2023-12-23T10:48:39.423Z,70.07
2023-12-23T10:50:42.072Z,71.13
2023-12-23T10:52:44.338Z,70.73
2023-12-23T10:54:46.410Z,70.47
2023-12-23T10:56:50.678Z,69.47
2023-12-23T10:58:52.765Z,68.99
2023-12-23T11:00:55.538Z,69.01
2023-12-23T11:02:59.075Z,68.67
2023-12-23T11:05:03.628Z,68.03
2023-12-23T11:07:06.022Z,69.17
2023-12-23T11:09:09.777Z,68.94
2023-12-23T11:11:11.973Z,68.31
2023-12-23T11:13:14.765Z,67.89
2023-12-23T11:15:16.752Z,67.62
2023-12-23T11:17:26.058Z,66.78
2023-12-23T11:19:28.039Z,66.92
2023-12-23T11:21:31.303Z,66.12
2023-12-23T11:23:34.133Z,65.77
2023-12-23T11:25:40.399Z,65.66
2023-12-23T11:27:42.360Z,64.97
2023-12-23T11:29:44.136Z,65.15
2023-12-23T11:31:45.896Z,65.60
2023-12-23T11:33:47.929Z,65.51
2023-12-23T11:36:02.809Z,65.47
2023-12-23T11:38:05.059Z,65.32
2023-12-23T11:40:07.708Z,65.14
2023-12-23T11:42:09.854Z,64.84
2023-12-23T11:44:14.851Z,65.06
2023-12-23T11:46:18.759Z,64.62
2023-12-23T11:48:22.575Z,64.07
2023-12-23T11:50:24.592Z,64.29
2023-12-23T11:52:26.843Z,64.64
2023-12-23T11:54:29.065Z,65.76
2023-12-23T11:56:31.018Z,67.50
2023-12-23T11:58:33.288Z,68.80
2023-12-23T12:00:37.698Z,69.24
2023-12-23T12:02:39.461Z,69.02
2023-12-23T12:04:41.227Z,68.02
2023-12-23T12:06:43.070Z,66.82
2023-12-23T12:08:44.866Z,64.83
2023-12-23T12:10:47.519Z,64.50
2023-12-23T12:12:50.208Z,64.07
2023-12-23T12:14:52.324Z,64.19
2023-12-23T12:16:54.922Z,63.55
2023-12-23T12:18:56.819Z,62.25
2023-12-23T12:20:58.786Z,61.60
2023-12-23T12:23:02.475Z,60.57
2023-12-23T12:25:05.556Z,60.99
2023-12-23T12:27:07.396Z,60.77
2023-12-23T12:29:09.952Z,61.12
2023-12-23T12:31:13.881Z,60.93
2023-12-23T12:33:18.696Z,61.55
2023-12-23T12:35:20.577Z,61.99
2023-12-23T12:37:22.456Z,62.55
2023-12-23T12:39:24.458Z,63.26
2023-12-23T12:41:26.374Z,64.42
2023-12-23T12:43:32.837Z,65.47
2023-12-23T12:45:42.069Z,67.06
2023-12-23T12:47:46.153Z,67.61
2023-12-23T12:49:59.435Z,67.60
2023-12-23T12:52:07.793Z,68.69
2023-12-23T12:54:10.075Z,69.24
2023-12-23T12:56:13.004Z,70.07
2023-12-23T12:58:15.239Z,70.27
2023-12-23T13:00:17.324Z,69.71
2023-12-23T13:02:20.062Z,69.99
2023-12-23T13:04:22.025Z,70.28
2023-12-23T13:06:23.734Z,69.67
2023-12-23T13:08:25.573Z,70.45
2023-12-23T13:10:27.476Z,69.27
2023-12-23T13:12:29.237Z,70.79
2023-12-23T13:14:31.014Z,69.93
2023-12-23T13:16:32.759Z,69.85
2023-12-23T13:18:45.574Z,69.55
2023-12-23T13:20:54.728Z,69.89
2023-12-23T13:22:56.786Z,69.04
2023-12-23T13:24:58.941Z,66.98
2023-12-23T13:27:00.621Z,66.85
2023-12-23T13:29:02.417Z,66.56
2023-12-23T13:31:04.763Z,65.49
2023-12-23T13:33:08.619Z,65.21
2023-12-23T13:35:10.289Z,65.09
2023-12-23T13:37:12.095Z,64.56
2023-12-23T13:39:14.274Z,64.29
2023-12-23T13:41:21.737Z,63.87
2023-12-23T13:43:24.640Z,63.17
2023-12-23T13:45:26.400Z,63.72
2023-12-23T13:47:28.463Z,63.43
2023-12-23T13:49:30.353Z,63.74
2023-12-23T13:51:33.281Z,63.87
2023-12-23T13:53:35.102Z,64.61
2023-12-23T13:55:36.884Z,65.33
2023-12-23T13:57:38.598Z,64.51
2023-12-23T13:59:40.392Z,64.68
2023-12-23T14:01:42.209Z,64.09
2023-12-23T14:03:45.265Z,63.30
2023-12-23T14:05:47.547Z,63.12
2023-12-23T14:07:49.480Z,62.66
2023-12-23T14:09:51.357Z,62.52
2023-12-23T14:11:53.228Z,62.78
2023-12-23T14:13:54.999Z,62.74
2023-12-23T14:15:57.080Z,62.25
2023-12-23T14:17:58.970Z,62.22
2023-12-23T14:20:00.780Z,62.04
2023-12-23T14:22:02.563Z,61.67
2023-12-23T14:24:04.706Z,62.14
2023-12-23T14:26:06.522Z,62.28
2023-12-23T14:28:08.282Z,62.58
2023-12-23T14:30:10.833Z,63.30
2023-12-23T14:32:12.657Z,63.88
2023-12-23T14:34:15.207Z,64.07
2023-12-23T14:36:17.405Z,64.56
2023-12-23T14:38:19.286Z,65.29
2023-12-23T14:40:21.104Z,67.04
2023-12-23T14:42:22.845Z,66.92
2023-12-23T14:44:24.687Z,67.72
2023-12-23T14:46:26.529Z,67.42
2023-12-23T14:48:28.542Z,67.60
2023-12-23T14:50:30.527Z,67.39
2023-12-23T14:52:32.429Z,66.99
2023-12-23T14:54:34.292Z,66.79
2023-12-23T14:56:36.167Z,67.06
2023-12-23T14:58:37.918Z,67.80
2023-12-23T15:00:43.120Z,67.06
2023-12-23T15:02:45.035Z,67.64
2023-12-23T15:04:46.878Z,68.19
2023-12-23T15:06:49.128Z,67.64
2023-12-23T15:08:50.937Z,68.17
2023-12-23T15:10:52.774Z,68.68
2023-12-23T15:12:54.817Z,68.78
2023-12-23T15:14:56.689Z,68.96
2023-12-23T15:16:59.539Z,68.01
2023-12-23T15:19:01.961Z,68.48
2023-12-23T15:21:04.551Z,69.10
2023-12-23T15:23:06.309Z,69.12
2023-12-23T15:25:08.193Z,68.75
2023-12-23T15:27:09.952Z,69.46
2023-12-23T15:29:11.751Z,68.90
2023-12-23T15:31:13.614Z,70.06
2023-12-23T15:33:16.082Z,69.28
2023-12-23T15:35:19.447Z,69.65
2023-12-23T15:37:22.008Z,70.19
2023-12-23T15:39:23.789Z,71.00
2023-12-23T15:41:25.556Z,71.54
2023-12-23T15:43:27.518Z,72.67
2023-12-23T15:45:29.229Z,72.14
2023-12-23T15:47:31.140Z,72.56
2023-12-23T15:49:35.218Z,72.84
2023-12-23T15:51:39.069Z,71.98
2023-12-23T15:53:41.723Z,72.29
2023-12-23T15:55:43.656Z,72.39
2023-12-23T15:57:45.486Z,72.75
2023-12-23T15:59:47.282Z,72.89
2023-12-23T16:01:49.048Z,72.80
2023-12-23T16:03:50.870Z,72.99
2023-12-23T16:05:53.010Z,73.25
2023-12-23T16:07:54.842Z,72.97
2023-12-23T16:09:56.577Z,73.09
2023-12-23T16:11:58.456Z,72.56
2023-12-23T16:14:02.611Z,72.11
2023-12-23T16:16:06.340Z,72.56
2023-12-23T16:18:09.035Z,73.05
2023-12-23T16:20:11.478Z,73.33
2023-12-23T16:22:13.592Z,73.62
2023-12-23T16:24:15.404Z,73.75
2023-12-23T16:26:17.828Z,74.02
2023-12-23T16:28:19.652Z,74.09
2023-12-23T16:30:21.609Z,73.46
2023-12-23T16:32:23.489Z,73.01
2023-12-23T16:34:25.335Z,72.09
2023-12-23T16:36:27.147Z,72.04
2023-12-23T16:38:28.994Z,71.48
2023-12-23T16:40:30.828Z,70.06
2023-12-23T16:42:35.551Z,69.64
2023-12-23T16:44:37.514Z,70.06
2023-12-23T16:46:39.259Z,69.86
2023-12-23T16:48:41.192Z,69.05
2023-12-23T16:50:44.502Z,69.00
2023-12-23T16:52:46.418Z,68.10
2023-12-23T16:54:48.527Z,68.82
2023-12-23T16:56:50.202Z,69.77
2023-12-23T16:58:52.004Z,69.61
2023-12-23T17:00:53.782Z,70.99
2023-12-23T17:02:55.672Z,69.93
2023-12-23T17:04:57.560Z,69.68
2023-12-23T17:06:59.371Z,69.33
2023-12-23T17:09:01.072Z,69.37
2023-12-23T17:11:02.793Z,68.71
2023-12-23T17:13:05.281Z,68.94
2023-12-23T17:15:08.131Z,68.99
2023-12-23T17:17:10.746Z,68.77
2023-12-23T17:19:12.673Z,69.12
2023-12-23T17:21:14.471Z,69.15
2023-12-23T17:23:16.365Z,68.23
2023-12-23T17:25:18.219Z,68.09
2023-12-23T17:27:19.979Z,68.11
2023-12-23T17:29:21.768Z,67.51
2023-12-23T17:31:23.637Z,67.17
2023-12-23T17:33:25.541Z,67.51
2023-12-23T17:35:27.478Z,67.34
2023-12-23T17:37:29.214Z,67.90
2023-12-23T17:39:30.932Z,67.77
2023-12-23T17:41:32.945Z,68.66
2023-12-23T17:43:35.617Z,68.11
2023-12-23T17:45:38.745Z,68.28
2023-12-23T17:47:42.987Z,67.70
2023-12-23T17:49:44.828Z,68.05
2023-12-23T17:51:46.672Z,68.68
2023-12-23T17:53:48.667Z,67.86
2023-12-23T17:55:50.483Z,67.77
2023-12-23T17:57:52.282Z,68.99
2023-12-23T17:59:54.040Z,69.21
2023-12-23T18:01:55.877Z,68.23
2023-12-23T18:03:57.671Z,68.48
2023-12-23T18:05:59.527Z,68.67
2023-12-23T18:08:01.298Z,68.17
2023-12-23T18:10:04.481Z,68.55
2023-12-23T18:12:06.404Z,67.55
2023-12-23T18:14:08.219Z,68.75
2023-12-23T18:16:10.001Z,69.78
2023-12-23T18:18:11.853Z,70.35
2023-12-23T18:20:13.636Z,70.24
2023-12-23T18:22:15.531Z,69.27
2023-12-23T18:24:17.503Z,69.61
2023-12-23T18:26:19.290Z,70.42
2023-12-23T18:28:21.139Z,69.51
2023-12-23T18:30:23.277Z,69.35
2023-12-23T18:32:25.160Z,69.46
2023-12-23T18:34:28.174Z,70.40
2023-12-23T18:36:30.027Z,69.56
2023-12-23T18:38:31.894Z,69.67
2023-12-23T18:40:33.713Z,68.68
2023-12-23T18:42:35.448Z,68.34
2023-12-23T18:44:37.296Z,68.27
2023-12-23T18:46:39.230Z,68.48
2023-12-23T18:48:41.069Z,67.53
2023-12-23T18:50:43.473Z,67.66
2023-12-23T18:52:45.778Z,67.70
2023-12-23T18:54:47.446Z,67.47
2023-12-23T18:56:49.232Z,67.29
2023-12-23T18:58:51.133Z,67.16
2023-12-23T19:00:53.914Z,67.05
2023-12-23T19:02:56.182Z,66.62
2023-12-23T19:05:03.127Z,66.86
2023-12-23T19:07:07.267Z,66.47
2023-12-23T19:09:08.973Z,66.68
2023-12-23T19:11:10.819Z,67.01
2023-12-23T19:13:13.299Z,66.55
2023-12-23T19:15:15.254Z,67.35
2023-12-23T19:17:17.318Z,68.78
2023-12-23T19:19:19.352Z,68.31
2023-12-23T19:21:21.499Z,68.31
2023-12-23T19:23:23.527Z,68.61
2023-12-23T19:25:25.570Z,68.28
2023-12-23T19:27:27.249Z,68.22
2023-12-23T19:29:29.091Z,67.42
2023-12-23T19:31:33.267Z,68.03
2023-12-23T19:33:35.579Z,68.07
2023-12-23T19:35:37.610Z,68.41
2023-12-23T19:37:39.644Z,67.76
2023-12-23T19:39:44.795Z,67.75
2023-12-23T19:41:50.705Z,67.41
2023-12-23T19:43:52.454Z,68.11
2023-12-23T19:45:55.228Z,68.19
2023-12-23T19:47:57.227Z,67.91
2023-12-23T19:49:59.321Z,67.56
2023-12-23T19:52:01.012Z,67.51
2023-12-23T19:54:02.853Z,66.85
2023-12-23T19:56:05.044Z,66.45
2023-12-23T19:58:07.047Z,66.34
2023-12-23T20:00:10.815Z,66.54
2023-12-23T20:02:12.602Z,67.42
2023-12-23T20:04:15.146Z,67.62
2023-12-23T20:06:19.790Z,67.92
2023-12-23T20:08:21.698Z,68.19
2023-12-23T20:10:23.389Z,68.84
2023-12-23T20:12:25.174Z,68.06
2023-12-23T20:14:27.111Z,67.74
2023-12-23T20:16:29.120Z,67.38
2023-12-23T20:18:31.068Z,67.62
2023-12-23T20:20:32.929Z,66.38
2023-12-23T20:22:35.967Z,65.79
2023-12-23T20:24:37.880Z,66.64
2023-12-23T20:26:39.796Z,67.20
2023-12-23T20:28:41.544Z,66.46
2023-12-23T20:30:43.569Z,65.80
2023-12-23T20:32:45.709Z,67.12
2023-12-23T20:34:47.481Z,67.62
2023-12-23T20:36:49.316Z,67.70
2023-12-23T20:38:51.030Z,68.31
2023-12-23T20:40:52.815Z,67.89
2023-12-23T20:42:55.001Z,67.30
2023-12-23T20:44:57.078Z,68.15
2023-12-23T20:46:58.995Z,68.33
2023-12-23T20:49:01.890Z,68.08
2023-12-23T20:51:07.957Z,67.85
2023-12-23T20:53:09.701Z,67.33
2023-12-23T20:55:14.469Z,67.59
2023-12-23T20:57:16.237Z,67.37
2023-12-23T20:59:17.980Z,67.63
2023-12-23T21:01:24.218Z,66.51
2023-12-23T21:03:26.075Z,67.36
2023-12-23T21:05:28.106Z,67.23
2023-12-23T21:07:29.983Z,67.41
2023-12-23T21:09:31.708Z,67.24
2023-12-23T21:11:33.633Z,67.39
2023-12-23T21:13:35.453Z,67.03
2023-12-23T21:15:38.525Z,66.96
2023-12-23T21:17:40.472Z,67.11
2023-12-23T21:19:42.319Z,67.46
2023-12-23T21:21:44.226Z,67.15
2023-12-23T21:23:45.970Z,67.57
2023-12-23T21:25:47.847Z,67.73
2023-12-23T21:27:49.639Z,67.27
2023-12-23T21:29:51.677Z,66.48
2023-12-23T21:31:53.534Z,66.45
2023-12-23T21:33:55.286Z,66.10
2023-12-23T21:35:57.131Z,66.50
2023-12-23T21:37:58.985Z,66.36
2023-12-23T21:40:00.810Z,66.29
2023-12-23T21:42:02.749Z,66.59
2023-12-23T21:44:04.958Z,66.17
2023-12-23T21:46:06.716Z,65.60
2023-12-23T21:48:08.755Z,65.71
2023-12-23T21:50:10.592Z,65.69
2023-12-23T21:52:12.398Z,65.93
2023-12-23T21:54:14.334Z,65.77
2023-12-23T21:56:16.117Z,66.23
2023-12-23T21:58:17.932Z,65.71
2023-12-23T22:00:20.061Z,65.55
2023-12-23T22:02:22.004Z,65.14
2023-12-23T22:04:23.704Z,65.44
2023-12-23T22:06:25.466Z,65.22
2023-12-23T22:08:27.453Z,65.64
2023-12-23T22:10:29.836Z,66.34
2023-12-23T22:12:31.758Z,66.18
2023-12-23T22:14:33.546Z,65.73
2023-12-23T22:16:35.414Z,65.51
2023-12-23T22:18:37.319Z,65.16
2023-12-23T22:20:39.154Z,65.30
2023-12-23T22:22:41.017Z,64.91
2023-12-23T22:24:44.265Z,65.47
2023-12-23T22:26:46.010Z,64.73
2023-12-23T22:28:47.903Z,64.90
2023-12-23T22:30:49.833Z,64.02
2023-12-23T22:32:52.962Z,63.84
2023-12-23T22:34:55.298Z,64.09
2023-12-23T22:36:57.299Z,65.17
2023-12-23T22:38:59.243Z,65.86
2023-12-23T22:41:02.335Z,65.85
2023-12-23T22:43:06.067Z,66.47
2023-12-23T22:45:08.348Z,66.36
2023-12-23T22:47:10.933Z,66.77
2023-12-23T22:49:12.734Z,66.41
2023-12-23T22:51:14.497Z,67.22
2023-12-23T22:53:16.371Z,67.35
2023-12-23T22:55:18.110Z,67.27
2023-12-23T22:57:19.883Z,67.83
2023-12-23T22:59:21.684Z,67.74
2023-12-23T23:01:23.403Z,67.17
2023-12-23T23:03:25.443Z,67.30
2023-12-23T23:05:28.643Z,67.09
2023-12-23T23:07:30.480Z,67.68
2023-12-23T23:09:32.272Z,67.67
2023-12-23T23:11:34.331Z,67.81
2023-12-23T23:13:36.170Z,68.58
2023-12-23T23:15:38.112Z,68.84
2023-12-23T23:17:40.127Z,69.02
2023-12-23T23:19:44.794Z,69.64
2023-12-23T23:21:46.539Z,69.60
2023-12-23T23:23:49.156Z,68.64
2023-12-23T23:25:50.892Z,68.46
2023-12-23T23:27:53.192Z,68.16
2023-12-23T23:29:55.104Z,67.51
2023-12-23T23:31:56.889Z,67.47
2023-12-23T23:33:58.844Z,67.85
2023-12-23T23:36:00.713Z,68.17
2023-12-23T23:38:02.514Z,68.30
2023-12-23T23:40:04.491Z,68.83
2023-12-23T23:42:06.415Z,69.05
2023-12-23T23:44:08.232Z,69.38
2023-12-23T23:46:15.747Z,68.97
2023-12-23T23:48:17.496Z,69.51
2023-12-23T23:50:19.409Z,69.99
2023-12-23T23:52:21.363Z,69.42
2023-12-23T23:54:23.086Z,68.53
2023-12-23T23:56:25.257Z,68.58
2023-12-23T23:58:27.183Z,68.52
